Archival Weather

Aeroparque Jorge Newbery

Buenos Aires, Argentina (SABE)

Report from: Sunday, March 19, 2023 9:00 AM -03
Current time: Sunday, July 14, 2024 7:41 AM -03

Current weather – Weather history – Daily summaries
Weather forecast

Temperature27.0°C (80.6°F)
Heat index30.1°C (86.2°F)
Dew point24.0°C (75.2°F)
Winds 10 kts (5.1 m/s, 11.5 mph) North-Northwest (340°)
Visibility6.2 mi. (10 km)
Clouds Few clouds 1,200 ft. (366 m)
Scattered clouds 20,000 ft. (6,096 m)
Altimeter29.85 in.Hg (1011 mB)
Relative humidity84 %
Density altitude1,859 ft. (567 m)
Remarks Corrected report
No significant changes expected in the next two hours
Flight conditions Visual Meteorological Conditions
Raw dataCOR SABE 191200Z 34010KT 9999 FEW012 SCT200 27/24 Q1011 NOSIG RMK PP000
An error has occurred. This application may no longer respond until reloaded. Reload 🗙